Station Historical Data
Daily Summary for February 9, 2017 Units:  Both    English   Metric
« Previous Day
Next Day »
Daily Weekly Monthly Yearly Custom
  High: Low: Average:
Temperature: 23.5 °F /  -4.7 °C 16.6 °F /  -8.6 °C 19 °F /  -7.2 °C
Dew Point: 17.3 °F /  -8.2 °C 6.4 °F /  -14.2 °C 11.2 °F /  -11.6 °C
Humidity: 87% 51% 72%
Wind Speed: 13.0mph /  20.9km/h - 4.7mph /  7.6km/h
Wind Gust: 25.0mph /  40.2km/h - -
Wind- - WSW
Pressure: 30.17 in /  1021.6 hPa 29.87 in /  1011.4 hPa -
Precipitation: 0.00 in /  0 mm    
Historical Graphs
 
 
Tabular Data for February 9, 2017
Time Temperature Dew Point Pressure Wind Wind Speed Wind Gust Humidity Rainfall Rate (Hourly)
00:04 20.6 °F /  -6.3 °C 17.3 °F /  -8.2 °C 29.88in /  1011.7hPa NNE 5.0mph /  8km/h 8.0mph /  12.9km/h 87% 0.00in /  0mm
00:09 20.5 °F /  -6.4 °C 17.2 °F /  -8.2 °C 29.88in /  1011.7hPa NNE 5.0mph /  8km/h 8.0mph /  12.9km/h 87% 0.00in /  0mm
00:14 20.4 °F /  -6.4 °C 17.1 °F /  -8.3 °C 29.87in /  1011.4hPa NNE 5.0mph /  8km/h 9.0mph /  14.5km/h 87% 0.00in /  0mm
00:19 20.3 °F /  -6.5 °C 17.0 °F /  -8.3 °C 29.87in /  1011.4hPa NNE 3.0mph /  4.8km/h 8.0mph /  12.9km/h 87% 0.00in /  0mm
00:24 20.3 °F /  -6.5 °C 17.0 °F /  -8.3 °C 29.87in /  1011.4hPa South 3.0mph /  4.8km/h 11.0mph /  17.7km/h 87% 0.00in /  0mm
00:29 20.2 °F /  -6.6 °C 17.0 °F /  -8.3 °C 29.87in /  1011.4hPa NNE 5.0mph /  8km/h 11.0mph /  17.7km/h 87% 0.00in /  0mm
00:34 20.2 °F /  -6.6 °C 17.0 °F /  -8.3 °C 29.89in /  1012.1hPa North 4.0mph /  6.4km/h 8.0mph /  12.9km/h 87% 0.00in /  0mm
00:39 20.2 °F /  -6.6 °C 17.0 °F /  -8.3 °C 29.88in /  1011.7hPa NNE 3.0mph /  4.8km/h 8.0mph /  12.9km/h 87% 0.00in /  0mm
00:44 20.2 °F /  -6.6 °C 17.0 °F /  -8.3 °C 29.88in /  1011.7hPa NNW 5.0mph /  8km/h 9.0mph /  14.5km/h 87% 0.00in /  0mm
00:49 20.2 °F /  -6.6 °C 17.0 °F /  -8.3 °C 29.89in /  1012.1hPa North 3.0mph /  4.8km/h 9.0mph /  14.5km/h 87% 0.00in /  0mm
00:54 20.1 °F /  -6.6 °C 16.6 °F /  -8.6 °C 29.88in /  1011.7hPa NNE 6.0mph /  9.7km/h 11.0mph /  17.7km/h 86% 0.00in /  0mm
00:59 20.2 °F /  -6.6 °C 16.7 °F /  -8.5 °C 29.88in /  1011.7hPa North 4.0mph /  6.4km/h 11.0mph /  17.7km/h 86% 0.00in /  0mm
01:04 20.2 °F /  -6.6 °C 16.1 °F /  -8.8 °C 29.88in /  1011.7hPa North 5.0mph /  8km/h 10.0mph /  16.1km/h 84% 0.00in /  0mm
01:09 20.2 °F /  -6.6 °C 15.6 °F /  -9.1 °C 29.88in /  1011.7hPa NNE 5.0mph /  8km/h 10.0mph /  16.1km/h 82% 0.00in /  0mm
01:14 20.2 °F /  -6.6 °C 15.3 °F /  -9.3 °C 29.89in /  1012.1hPa NNE 6.0mph /  9.7km/h 14.0mph /  22.5km/h 81% 0.00in /  0mm
01:19 20.2 °F /  -6.6 °C 14.7 °F /  -9.6 °C 29.89in /  1012.1hPa North 4.0mph /  6.4km/h 13.0mph /  20.9km/h 79% 0.00in /  0mm
01:24 20.1 °F /  -6.6 °C 14.6 °F /  -9.7 °C 29.89in /  1012.1hPa NNE 6.0mph /  9.7km/h 13.0mph /  20.9km/h 79% 0.00in /  0mm
01:29 20.1 °F /  -6.6 °C 14.3 °F /  -9.8 °C 29.88in /  1011.7hPa NNE 4.0mph /  6.4km/h 10.0mph /  16.1km/h 78% 0.00in /  0mm
01:34 20.1 °F /  -6.6 °C 14.3 °F /  -9.8 °C 29.88in /  1011.7hPa NNE 5.0mph /  8km/h 7.0mph /  11.3km/h 78% 0.00in /  0mm
01:39 20.0 °F /  -6.7 °C 14.2 °F /  -9.9 °C 29.88in /  1011.7hPa North 3.0mph /  4.8km/h 7.0mph /  11.3km/h 78% 0.00in /  0mm
01:44 20.0 °F /  -6.7 °C 14.2 °F /  -9.9 °C 29.88in /  1011.7hPa NNE 4.0mph /  6.4km/h 10.0mph /  16.1km/h 78% 0.00in /  0mm
01:49 19.9 °F /  -6.7 °C 14.1 °F /  -9.9 °C 29.88in /  1011.7hPa North 2.0mph /  3.2km/h 12.0mph /  19.3km/h 78% 0.00in /  0mm
01:54 19.9 °F /  -6.7 °C 14.1 °F /  -9.9 °C 29.88in /  1011.7hPa NNE 6.0mph /  9.7km/h 8.0mph /  12.9km/h 78% 0.00in /  0mm
01:59 19.8 °F /  -6.8 °C 14.0 °F /  -10 °C 29.89in /  1012.1hPa NNE 2.0mph /  3.2km/h 9.0mph /  14.5km/h 78% 0.00in /  0mm
02:04 19.8 °F /  -6.8 °C 14.0 °F /  -10 °C 29.90in /  1012.4hPa NNE 7.0mph /  11.3km/h 10.0mph /  16.1km/h 78% 0.00in /  0mm
02:09 19.7 °F /  -6.8 °C 13.7 °F /  -10.2 °C 29.90in /  1012.4hPa North 4.0mph /  6.4km/h 10.0mph /  16.1km/h 77% 0.00in /  0mm
02:14 19.6 °F /  -6.9 °C 13.6 °F /  -10.2 °C 29.89in /  1012.1hPa North 5.0mph /  8km/h 12.0mph /  19.3km/h 77% 0.00in /  0mm
02:19 19.5 °F /  -6.9 °C 13.5 °F /  -10.3 °C 29.90in /  1012.4hPa North 5.0mph /  8km/h 12.0mph /  19.3km/h 77% 0.00in /  0mm
02:24 19.4 °F /  -7 °C 13.1 °F /  -10.5 °C 29.89in /  1012.1hPa North 5.0mph /  8km/h 11.0mph /  17.7km/h 76% 0.00in /  0mm
02:29 19.3 °F /  -7.1 °C 13.0 °F /  -10.6 °C 29.89in /  1012.1hPa NNE 5.0mph /  8km/h 12.0mph /  19.3km/h 76% 0.00in /  0mm
02:34 19.3 °F /  -7.1 °C 13.0 °F /  -10.6 °C 29.89in /  1012.1hPa North 7.0mph /  11.3km/h 8.0mph /  12.9km/h 76% 0.00in /  0mm
02:39 19.3 °F /  -7.1 °C 13.0 °F /  -10.6 °C 29.90in /  1012.4hPa North 5.0mph /  8km/h 10.0mph /  16.1km/h 76% 0.00in /  0mm
02:44 19.2 °F /  -7.1 °C 12.9 °F /  -10.6 °C 29.89in /  1012.1hPa North 4.0mph /  6.4km/h 8.0mph /  12.9km/h 76% 0.00in /  0mm
02:49 19.3 °F /  -7.1 °C 13.0 °F /  -10.6 °C 29.90in /  1012.4hPa NNW 5.0mph /  8km/h 8.0mph /  12.9km/h 76% 0.00in /  0mm
02:54 19.2 °F /  -7.1 °C 12.9 °F /  -10.6 °C 29.90in /  1012.4hPa NNE 5.0mph /  8km/h 11.0mph /  17.7km/h 76% 0.00in /  0mm
02:59 19.3 °F /  -7.1 °C 13.0 °F /  -10.6 °C 29.90in /  1012.4hPa NNW 5.0mph /  8km/h 8.0mph /  12.9km/h 76% 0.00in /  0mm
03:04 19.2 °F /  -7.1 °C 13.2 °F /  -10.4 °C 29.90in /  1012.4hPa North 3.0mph /  4.8km/h 10.0mph /  16.1km/h 77% 0.00in /  0mm
03:09 19.2 °F /  -7.1 °C 13.2 °F /  -10.4 °C 29.90in /  1012.4hPa North 5.0mph /  8km/h 13.0mph /  20.9km/h 77% 0.00in /  0mm
03:14 19.1 °F /  -7.2 °C 13.1 °F /  -10.5 °C 29.90in /  1012.4hPa North 5.0mph /  8km/h 13.0mph /  20.9km/h 77% 0.00in /  0mm
03:19 19.0 °F /  -7.2 °C 13.3 °F /  -10.4 °C 29.90in /  1012.4hPa North 4.0mph /  6.4km/h 8.0mph /  12.9km/h 78% 0.00in /  0mm
03:24 18.9 °F /  -7.3 °C 13.2 °F /  -10.4 °C 29.91in /  1012.8hPa North 4.0mph /  6.4km/h 9.0mph /  14.5km/h 78% 0.00in /  0mm
03:29 18.8 °F /  -7.3 °C 13.1 °F /  -10.5 °C 29.91in /  1012.8hPa NNE 4.0mph /  6.4km/h 11.0mph /  17.7km/h 78% 0.00in /  0mm
03:34 18.7 °F /  -7.4 °C 13.3 °F /  -10.4 °C 29.92in /  1013.1hPa North 3.0mph /  4.8km/h 9.0mph /  14.5km/h 79% 0.00in /  0mm
03:39 18.7 °F /  -7.4 °C 13.3 °F /  -10.4 °C 29.92in /  1013.1hPa NW 5.0mph /  8km/h 7.0mph /  11.3km/h 79% 0.00in /  0mm
03:44 18.7 °F /  -7.4 °C 13.3 °F /  -10.4 °C 29.92in /  1013.1hPa North 4.0mph /  6.4km/h 9.0mph /  14.5km/h 79% 0.00in /  0mm
03:49 18.7 °F /  -7.4 °C 13.3 °F /  -10.4 °C 29.92in /  1013.1hPa NNE 2.0mph /  3.2km/h 6.0mph /  9.7km/h 79% 0.00in /  0mm
03:54 18.6 °F /  -7.4 °C 13.5 °F /  -10.3 °C 29.92in /  1013.1hPa NNE 3.0mph /  4.8km/h 6.0mph /  9.7km/h 80% 0.00in /  0mm
03:59 18.6 °F /  -7.4 °C 13.2 °F /  -10.4 °C 29.92in /  1013.1hPa North 4.0mph /  6.4km/h 6.0mph /  9.7km/h 79% 0.00in /  0mm
04:04 18.5 °F /  -7.5 °C 13.4 °F /  -10.3 °C 29.92in /  1013.1hPa NNE 4.0mph /  6.4km/h 8.0mph /  12.9km/h 80% 0.00in /  0mm
04:09 18.4 °F /  -7.6 °C 13.0 °F /  -10.6 °C 29.92in /  1013.1hPa NNE 4.0mph /  6.4km/h 7.0mph /  11.3km/h 79% 0.00in /  0mm
04:14 18.3 °F /  -7.6 °C 12.9 °F /  -10.6 °C 29.92in /  1013.1hPa NNE 4.0mph /  6.4km/h 7.0mph /  11.3km/h 79% 0.00in /  0mm
04:19 18.3 °F /  -7.6 °C 12.9 °F /  -10.6 °C 29.93in /  1013.4hPa North 4.0mph /  6.4km/h 9.0mph /  14.5km/h 79% 0.00in /  0mm
04:24 18.2 °F /  -7.7 °C 12.5 °F /  -10.8 °C 29.92in /  1013.1hPa North 5.0mph /  8km/h 9.0mph /  14.5km/h 78% 0.00in /  0mm
04:29 18.2 °F /  -7.7 °C 12.5 °F /  -10.8 °C 29.92in /  1013.1hPa North 5.0mph /  8km/h 9.0mph /  14.5km/h 78% 0.00in /  0mm
04:34 18.2 °F /  -7.7 °C 12.5 °F /  -10.8 °C 29.93in /  1013.4hPa North 5.0mph /  8km/h 10.0mph /  16.1km/h 78% 0.00in /  0mm
04:39 18.2 °F /  -7.7 °C 12.2 °F /  -11 °C 29.93in /  1013.4hPa North 5.0mph /  8km/h 12.0mph /  19.3km/h 77% 0.00in /  0mm
04:44 18.2 °F /  -7.7 °C 12.2 °F /  -11 °C 29.93in /  1013.4hPa North 4.0mph /  6.4km/h 12.0mph /  19.3km/h 77% 0.00in /  0mm
04:49 18.2 °F /  -7.7 °C 12.2 °F /  -11 °C 29.94in /  1013.8hPa North 5.0mph /  8km/h 7.0mph /  11.3km/h 77% 0.00in /  0mm
04:54 18.2 °F /  -7.7 °C 12.2 °F /  -11 °C 29.93in /  1013.4hPa NNE 2.0mph /  3.2km/h 6.0mph /  9.7km/h 77% 0.00in /  0mm
04:59 18.2 °F /  -7.7 °C 11.9 °F /  -11.2 °C 29.94in /  1013.8hPa North 4.0mph /  6.4km/h 7.0mph /  11.3km/h 76% 0.00in /  0mm
05:04 18.1 °F /  -7.7 °C 11.8 °F /  -11.2 °C 29.93in /  1013.4hPa North 4.0mph /  6.4km/h 6.0mph /  9.7km/h 76% 0.00in /  0mm
05:09 18.1 °F /  -7.7 °C 11.8 °F /  -11.2 °C 29.94in /  1013.8hPa North 3.0mph /  4.8km/h 6.0mph /  9.7km/h 76% 0.00in /  0mm
05:14 18.0 °F /  -7.8 °C 11.4 °F /  -11.4 °C 29.94in /  1013.8hPa North 1.0mph /  1.6km/h 7.0mph /  11.3km/h 75% 0.00in /  0mm
05:19 17.9 °F /  -7.8 °C 11.3 °F /  -11.5 °C 29.94in /  1013.8hPa NNW 4.0mph /  6.4km/h 7.0mph /  11.3km/h 75% 0.00in /  0mm
05:24 17.8 °F /  -7.9 °C 11.2 °F /  -11.6 °C 29.94in /  1013.8hPa NNW 3.0mph /  4.8km/h 7.0mph /  11.3km/h 75% 0.00in /  0mm
05:29 17.6 °F /  -8 °C 11.0 °F /  -11.7 °C 29.94in /  1013.8hPa North 3.0mph /  4.8km/h 7.0mph /  11.3km/h 75% 0.00in /  0mm
05:34 17.5 °F /  -8.1 °C 10.9 °F /  -11.7 °C 29.94in /  1013.8hPa North 4.0mph /  6.4km/h 8.0mph /  12.9km/h 75% 0.00in /  0mm
05:39 17.3 °F /  -8.2 °C 10.7 °F /  -11.8 °C 29.94in /  1013.8hPa North 3.0mph /  4.8km/h 5.0mph /  8km/h 75% 0.00in /  0mm
05:44 17.2 °F /  -8.2 °C 10.6 °F /  -11.9 °C 29.94in /  1013.8hPa NNW 2.0mph /  3.2km/h 5.0mph /  8km/h 75% 0.00in /  0mm
05:49 17.1 °F /  -8.3 °C 10.8 °F /  -11.8 °C 29.94in /  1013.8hPa NNW 3.0mph /  4.8km/h 6.0mph /  9.7km/h 76% 0.00in /  0mm
05:54 17.0 °F /  -8.3 °C 10.7 °F /  -11.8 °C 29.95in /  1014.1hPa NNW 2.0mph /  3.2km/h 6.0mph /  9.7km/h 76% 0.00in /  0mm
05:59 16.9 °F /  -8.4 °C 10.6 °F /  -11.9 °C 29.95in /  1014.1hPa North 2.0mph /  3.2km/h 4.0mph /  6.4km/h 76% 0.00in /  0mm
06:04 16.7 °F /  -8.5 °C 10.4 °F /  -12 °C 29.95in /  1014.1hPa NNW 1.0mph /  1.6km/h 4.0mph /  6.4km/h 76% 0.00in /  0mm
06:09 16.7 °F /  -8.5 °C 10.7 °F /  -11.8 °C 29.95in /  1014.1hPa NNW 2.0mph /  3.2km/h 4.0mph /  6.4km/h 77% 0.00in /  0mm
06:14 16.6 °F /  -8.6 °C 10.6 °F /  -11.9 °C 29.95in /  1014.1hPa NNW 2.0mph /  3.2km/h 5.0mph /  8km/h 77% 0.00in /  0mm
06:19 16.6 °F /  -8.6 °C 10.6 °F /  -11.9 °C 29.95in /  1014.1hPa NNW 2.0mph /  3.2km/h 5.0mph /  8km/h 77% 0.00in /  0mm
06:24 16.6 °F /  -8.6 °C 10.6 °F /  -11.9 °C 29.95in /  1014.1hPa NNW 2.0mph /  3.2km/h 4.0mph /  6.4km/h 77% 0.00in /  0mm
06:29 16.6 °F /  -8.6 °C 10.6 °F /  -11.9 °C 29.95in /  1014.1hPa NNW 2.0mph /  3.2km/h 4.0mph /  6.4km/h 77% 0.00in /  0mm
06:34 16.6 °F /  -8.6 °C 10.3 °F /  -12.1 °C 29.95in /  1014.1hPa NNW 2.0mph /  3.2km/h 4.0mph /  6.4km/h 76% 0.00in /  0mm
06:39 16.6 °F /  -8.6 °C 10.3 °F /  -12.1 °C 29.95in /  1014.1hPa NW 3.0mph /  4.8km/h 5.0mph /  8km/h 76% 0.00in /  0mm
06:44 16.6 °F /  -8.6 °C 10.3 °F /  -12.1 °C 29.95in /  1014.1hPa Calm   4.0mph /  6.4km/h 76% 0.00in /  0mm
06:49 16.7 °F /  -8.5 °C 10.4 °F /  -12 °C 29.95in /  1014.1hPa NNW 2.0mph /  3.2km/h 6.0mph /  9.7km/h 76% 0.00in /  0mm
06:54 16.7 °F /  -8.5 °C 10.1 °F /  -12.2 °C 29.96in /  1014.4hPa NNW 3.0mph /  4.8km/h 6.0mph /  9.7km/h 75% 0.00in /  0mm
06:59 16.8 °F /  -8.4 °C 10.2 °F /  -12.1 °C 29.96in /  1014.4hPa NNW 3.0mph /  4.8km/h 6.0mph /  9.7km/h 75% 0.00in /  0mm
07:04 16.8 °F /  -8.4 °C 10.2 °F /  -12.1 °C 29.96in /  1014.4hPa North 5.0mph /  8km/h 5.0mph /  8km/h 75% 0.00in /  0mm
07:09 16.8 °F /  -8.4 °C 10.2 °F /  -12.1 °C 29.96in /  1014.4hPa NNW 1.0mph /  1.6km/h 5.0mph /  8km/h 75% 0.00in /  0mm
07:14 16.9 °F /  -8.4 °C 10.3 °F /  -12.1 °C 29.97in /  1014.8hPa NNW 2.0mph /  3.2km/h 4.0mph /  6.4km/h 75% 0.00in /  0mm
07:19 16.9 °F /  -8.4 °C 10.3 °F /  -12.1 °C 29.97in /  1014.8hPa NNW 2.0mph /  3.2km/h 7.0mph /  11.3km/h 75% 0.00in /  0mm
07:24 16.9 °F /  -8.4 °C 10.0 °F /  -12.2 °C 29.97in /  1014.8hPa NNW 3.0mph /  4.8km/h 7.0mph /  11.3km/h 74% 0.00in /  0mm
07:29 16.9 °F /  -8.4 °C 10.3 °F /  -12.1 °C 29.96in /  1014.4hPa NNW 4.0mph /  6.4km/h 7.0mph /  11.3km/h 75% 0.00in /  0mm
07:34 16.9 °F /  -8.4 °C 10.3 °F /  -12.1 °C 29.97in /  1014.8hPa NW 1.0mph /  1.6km/h 7.0mph /  11.3km/h 75% 0.00in /  0mm
07:39 16.9 °F /  -8.4 °C 10.3 °F /  -12.1 °C 29.97in /  1014.8hPa North 4.0mph /  6.4km/h 6.0mph /  9.7km/h 75% 0.00in /  0mm
07:44 16.9 °F /  -8.4 °C 10.3 °F /  -12.1 °C 29.96in /  1014.4hPa NNW 3.0mph /  4.8km/h 8.0mph /  12.9km/h 75% 0.00in /  0mm
07:49 16.8 °F /  -8.4 °C 10.2 °F /  -12.1 °C 29.96in /  1014.4hPa North 4.0mph /  6.4km/h 8.0mph /  12.9km/h 75% 0.00in /  0mm
07:54 16.8 °F /  -8.4 °C 10.2 °F /  -12.1 °C 29.96in /  1014.4hPa North 4.0mph /  6.4km/h 8.0mph /  12.9km/h 75% 0.00in /  0mm
07:59 16.9 °F /  -8.4 °C 10.6 °F /  -11.9 °C 29.97in /  1014.8hPa North 4.0mph /  6.4km/h 7.0mph /  11.3km/h 76% 0.00in /  0mm
08:04 17.1 °F /  -8.3 °C 10.8 °F /  -11.8 °C 29.97in /  1014.8hPa NNW 3.0mph /  4.8km/h 6.0mph /  9.7km/h 76% 0.00in /  0mm
08:09 17.2 °F /  -8.2 °C 10.9 °F /  -11.7 °C 29.97in /  1014.8hPa NW 2.0mph /  3.2km/h 8.0mph /  12.9km/h 76% 0.00in /  0mm
08:14 17.3 °F /  -8.2 °C 10.7 °F /  -11.8 °C 29.97in /  1014.8hPa NNW 4.0mph /  6.4km/h 8.0mph /  12.9km/h 75% 0.00in /  0mm
08:19 17.3 °F /  -8.2 °C 10.7 °F /  -11.8 °C 29.98in /  1015.1hPa NW 3.0mph /  4.8km/h 8.0mph /  12.9km/h 75% 0.00in /  0mm
08:24 17.3 °F /  -8.2 °C 10.4 °F /  -12 °C 29.97in /  1014.8hPa NNW 5.0mph /  8km/h 9.0mph /  14.5km/h 74% 0.00in /  0mm
08:29 17.5 °F /  -8.1 °C 10.9 °F /  -11.7 °C 29.98in /  1015.1hPa NNW 4.0mph /  6.4km/h 9.0mph /  14.5km/h 75% 0.00in /  0mm
08:34 17.3 °F /  -8.2 °C 10.1 °F /  -12.2 °C 29.98in /  1015.1hPa North 7.0mph /  11.3km/h 9.0mph /  14.5km/h 73% 0.00in /  0mm
08:39 17.2 °F /  -8.2 °C 10.3 °F /  -12.1 °C 29.98in /  1015.1hPa North 2.0mph /  3.2km/h 8.0mph /  12.9km/h 74% 0.00in /  0mm
08:44 17.2 °F /  -8.2 °C 10.3 °F /  -12.1 °C 29.98in /  1015.1hPa NNW 3.0mph /  4.8km/h 8.0mph /  12.9km/h 74% 0.00in /  0mm
08:49 17.3 °F /  -8.2 °C 10.4 °F /  -12 °C 29.97in /  1014.8hPa NW 1.0mph /  1.6km/h 7.0mph /  11.3km/h 74% 0.00in /  0mm
08:54 17.4 °F /  -8.1 °C 10.5 °F /  -11.9 °C 29.97in /  1014.8hPa NNW 3.0mph /  4.8km/h 9.0mph /  14.5km/h 74% 0.00in /  0mm
08:59 17.2 °F /  -8.2 °C 10.0 °F /  -12.2 °C 29.97in /  1014.8hPa NNW 4.0mph /  6.4km/h 10.0mph /  16.1km/h 73% 0.00in /  0mm
09:04 17.3 °F /  -8.2 °C 10.4 °F /  -12 °C 29.98in /  1015.1hPa NNW 4.0mph /  6.4km/h 10.0mph /  16.1km/h 74% 0.00in /  0mm
09:09 17.3 °F /  -8.2 °C 10.1 °F /  -12.2 °C 29.97in /  1014.8hPa NNW 4.0mph /  6.4km/h 7.0mph /  11.3km/h 73% 0.00in /  0mm
09:14 17.2 °F /  -8.2 °C 10.0 °F /  -12.2 °C 29.98in /  1015.1hPa North 4.0mph /  6.4km/h 7.0mph /  11.3km/h 73% 0.00in /  0mm
09:19 17.2 °F /  -8.2 °C 10.0 °F /  -12.2 °C 29.98in /  1015.1hPa North 4.0mph /  6.4km/h 8.0mph /  12.9km/h 73% 0.00in /  0mm
09:24 17.6 °F /  -8 °C 10.7 °F /  -11.8 °C 29.98in /  1015.1hPa NNE 7.0mph /  11.3km/h 9.0mph /  14.5km/h 74% 0.00in /  0mm
09:29 17.3 °F /  -8.2 °C 9.8 °F /  -12.3 °C 29.98in /  1015.1hPa NNW 5.0mph /  8km/h 11.0mph /  17.7km/h 72% 0.00in /  0mm
09:34 17.5 °F /  -8.1 °C 10.3 °F /  -12.1 °C 29.99in /  1015.5hPa NNW 6.0mph /  9.7km/h 6.0mph /  9.7km/h 73% 0.00in /  0mm
09:39 17.4 °F /  -8.1 °C 9.9 °F /  -12.3 °C 29.99in /  1015.5hPa NNW 4.0mph /  6.4km/h 7.0mph /  11.3km/h 72% 0.00in /  0mm
09:44 17.3 °F /  -8.2 °C 9.8 °F /  -12.3 °C 29.99in /  1015.5hPa NNW 6.0mph /  9.7km/h 8.0mph /  12.9km/h 72% 0.00in /  0mm
09:49 17.5 °F /  -8.1 °C 10.0 °F /  -12.2 °C 29.99in /  1015.5hPa NW 2.0mph /  3.2km/h 8.0mph /  12.9km/h 72% 0.00in /  0mm
09:54 17.4 °F /  -8.1 °C 9.6 °F /  -12.4 °C 29.99in /  1015.5hPa NNW 4.0mph /  6.4km/h 8.0mph /  12.9km/h 71% 0.00in /  0mm
09:59 17.4 °F /  -8.1 °C 9.9 °F /  -12.3 °C 29.99in /  1015.5hPa NNW 5.0mph /  8km/h 8.0mph /  12.9km/h 72% 0.00in /  0mm
10:04 17.5 °F /  -8.1 °C 10.3 °F /  -12.1 °C 29.99in /  1015.5hPa NNW 5.0mph /  8km/h 10.0mph /  16.1km/h 73% 0.00in /  0mm
10:09 17.5 °F /  -8.1 °C 9.7 °F /  -12.4 °C 29.99in /  1015.5hPa NNW 5.0mph /  8km/h 10.0mph /  16.1km/h 71% 0.00in /  0mm
10:14 17.7 °F /  -7.9 °C 9.9 °F /  -12.3 °C 29.99in /  1015.5hPa NNW 4.0mph /  6.4km/h 8.0mph /  12.9km/h 71% 0.00in /  0mm
10:19 18.0 °F /  -7.8 °C 10.2 °F /  -12.1 °C 29.99in /  1015.5hPa NNE 1.0mph /  1.6km/h 6.0mph /  9.7km/h 71% 0.00in /  0mm
10:24 17.6 °F /  -8 °C 9.2 °F /  -12.7 °C 29.99in /  1015.5hPa NNW 3.0mph /  4.8km/h 7.0mph /  11.3km/h 69% 0.00in /  0mm
10:29 17.6 °F /  -8 °C 9.5 °F /  -12.5 °C 29.99in /  1015.5hPa North 7.0mph /  11.3km/h 10.0mph /  16.1km/h 70% 0.00in /  0mm
10:34 17.7 °F /  -7.9 °C 9.6 °F /  -12.4 °C 30.00in /  1015.8hPa NNW 1.0mph /  1.6km/h 7.0mph /  11.3km/h 70% 0.00in /  0mm
10:39 17.8 °F /  -7.9 °C 9.3 °F /  -12.6 °C 30.00in /  1015.8hPa NW 3.0mph /  4.8km/h 10.0mph /  16.1km/h 69% 0.00in /  0mm
10:44 18.0 °F /  -7.8 °C 9.9 °F /  -12.3 °C 30.00in /  1015.8hPa NNE 4.0mph /  6.4km/h 5.0mph /  8km/h 70% 0.00in /  0mm
10:49 17.9 °F /  -7.8 °C 9.1 °F /  -12.7 °C 30.00in /  1015.8hPa NNE 4.0mph /  6.4km/h 9.0mph /  14.5km/h 68% 0.00in /  0mm
10:54 17.8 °F /  -7.9 °C 9.3 °F /  -12.6 °C 30.00in /  1015.8hPa North 4.0mph /  6.4km/h 9.0mph /  14.5km/h 69% 0.00in /  0mm
10:59 17.8 °F /  -7.9 °C 9.3 °F /  -12.6 °C 30.01in /  1016.1hPa North 4.0mph /  6.4km/h 9.0mph /  14.5km/h 69% 0.00in /  0mm
11:04 17.8 °F /  -7.9 °C 9.3 °F /  -12.6 °C 30.01in /  1016.1hPa North 4.0mph /  6.4km/h 9.0mph /  14.5km/h 69% 0.00in /  0mm
11:09 18.0 °F /  -7.8 °C 9.9 °F /  -12.3 °C 30.01in /  1016.1hPa North 4.0mph /  6.4km/h 8.0mph /  12.9km/h 70% 0.00in /  0mm
11:14 17.9 °F /  -7.8 °C 9.4 °F /  -12.6 °C 30.01in /  1016.1hPa North 4.0mph /  6.4km/h 8.0mph /  12.9km/h 69% 0.00in /  0mm
11:19 18.0 °F /  -7.8 °C 9.5 °F /  -12.5 °C 30.01in /  1016.1hPa North 6.0mph /  9.7km/h 8.0mph /  12.9km/h 69% 0.00in /  0mm
11:24 17.9 °F /  -7.8 °C 9.4 °F /  -12.6 °C 30.01in /  1016.1hPa NNW 8.0mph /  12.9km/h 11.0mph /  17.7km/h 69% 0.00in /  0mm
11:29 18.4 °F /  -7.6 °C 10.6 °F /  -11.9 °C 30.01in /  1016.1hPa North 5.0mph /  8km/h 11.0mph /  17.7km/h 71% 0.00in /  0mm
11:34 18.2 °F /  -7.7 °C 9.7 °F /  -12.4 °C 30.01in /  1016.1hPa North 1.0mph /  1.6km/h 7.0mph /  11.3km/h 69% 0.00in /  0mm
11:39 18.2 °F /  -7.7 °C 9.4 °F /  -12.6 °C 30.01in /  1016.1hPa North 7.0mph /  11.3km/h 10.0mph /  16.1km/h 68% 0.00in /  0mm
11:44 18.2 °F /  -7.7 °C 9.4 °F /  -12.6 °C 30.01in /  1016.1hPa NNW 1.0mph /  1.6km/h 9.0mph /  14.5km/h 68% 0.00in /  0mm
11:49 19.0 °F /  -7.2 °C 11.1 °F /  -11.6 °C 30.01in /  1016.1hPa North 4.0mph /  6.4km/h 6.0mph /  9.7km/h 71% 0.00in /  0mm
11:54 19.0 °F /  -7.2 °C 10.2 °F /  -12.1 °C 30.01in /  1016.1hPa NW 11.0mph /  17.7km/h 11.0mph /  17.7km/h 68% 0.00in /  0mm
11:59 18.9 °F /  -7.3 °C 9.7 °F /  -12.4 °C 30.01in /  1016.1hPa NNW 5.0mph /  8km/h 11.0mph /  17.7km/h 67% 0.00in /  0mm
12:04 19.1 °F /  -7.2 °C 9.9 °F /  -12.3 °C 30.01in /  1016.1hPa NNW 5.0mph /  8km/h 11.0mph /  17.7km/h 67% 0.00in /  0mm
12:09 20.1 °F /  -6.6 °C 10.6 °F /  -11.9 °C 30.01in /  1016.1hPa NNW 4.0mph /  6.4km/h 9.0mph /  14.5km/h 66% 0.00in /  0mm
12:14 20.3 °F /  -6.5 °C 10.7 °F /  -11.8 °C 30.01in /  1016.1hPa NNW 5.0mph /  8km/h 11.0mph /  17.7km/h 66% 0.00in /  0mm
12:19 20.4 °F /  -6.4 °C 10.5 °F /  -11.9 °C 30.01in /  1016.1hPa North 4.0mph /  6.4km/h 11.0mph /  17.7km/h 65% 0.00in /  0mm
12:24 20.1 °F /  -6.6 °C 10.2 °F /  -12.1 °C 30.01in /  1016.1hPa NNW 6.0mph /  9.7km/h 12.0mph /  19.3km/h 65% 0.00in /  0mm
12:29 20.1 °F /  -6.6 °C 10.6 °F /  -11.9 °C 30.01in /  1016.1hPa NW 5.0mph /  8km/h 12.0mph /  19.3km/h 66% 0.00in /  0mm
12:34 20.3 °F /  -6.5 °C 10.7 °F /  -11.8 °C 30.00in /  1015.8hPa NW 4.0mph /  6.4km/h 8.0mph /  12.9km/h 66% 0.00in /  0mm
12:39 20.9 °F /  -6.2 °C 11.7 °F /  -11.3 °C 30.01in /  1016.1hPa WNW 3.0mph /  4.8km/h 10.0mph /  16.1km/h 67% 0.00in /  0mm
12:44 20.6 °F /  -6.3 °C 11.4 °F /  -11.4 °C 30.01in /  1016.1hPa NW 6.0mph /  9.7km/h 8.0mph /  12.9km/h 67% 0.00in /  0mm
12:49 20.6 °F /  -6.3 °C 11.0 °F /  -11.7 °C 30.01in /  1016.1hPa NW 4.0mph /  6.4km/h 9.0mph /  14.5km/h 66% 0.00in /  0mm
12:54 20.4 °F /  -6.4 °C 10.8 °F /  -11.8 °C 30.01in /  1016.1hPa North 4.0mph /  6.4km/h 8.0mph /  12.9km/h 66% 0.00in /  0mm
12:59 20.8 °F /  -6.2 °C 11.2 °F /  -11.6 °C 30.01in /  1016.1hPa NNW 4.0mph /  6.4km/h 8.0mph /  12.9km/h 66% 0.00in /  0mm
13:04 20.3 °F /  -6.5 °C 10.7 °F /  -11.8 °C 30.01in /  1016.1hPa NNW 4.0mph /  6.4km/h 9.0mph /  14.5km/h 66% 0.00in /  0mm
13:09 20.9 °F /  -6.2 °C 11.0 °F /  -11.7 °C 30.01in /  1016.1hPa NNW 4.0mph /  6.4km/h 11.0mph /  17.7km/h 65% 0.00in /  0mm
13:14 21.2 °F /  -6 °C 11.6 °F /  -11.3 °C 30.01in /  1016.1hPa NW 4.0mph /  6.4km/h 11.0mph /  17.7km/h 66% 0.00in /  0mm
13:19 21.0 °F /  -6.1 °C 11.4 °F /  -11.4 °C 30.02in /  1016.5hPa North 3.0mph /  4.8km/h 9.0mph /  14.5km/h 66% 0.00in /  0mm
13:24 20.6 °F /  -6.3 °C 10.7 °F /  -11.8 °C 30.01in /  1016.1hPa WNW 6.0mph /  9.7km/h 11.0mph /  17.7km/h 65% 0.00in /  0mm
13:29 20.6 °F /  -6.3 °C 11.0 °F /  -11.7 °C 30.01in /  1016.1hPa NNW 5.0mph /  8km/h 11.0mph /  17.7km/h 66% 0.00in /  0mm
13:34 20.4 °F /  -6.4 °C 10.1 °F /  -12.2 °C 30.01in /  1016.1hPa NNW 5.0mph /  8km/h 10.0mph /  16.1km/h 64% 0.00in /  0mm
13:39 20.9 °F /  -6.2 °C 10.6 °F /  -11.9 °C 30.01in /  1016.1hPa North 8.0mph /  12.9km/h 11.0mph /  17.7km/h 64% 0.00in /  0mm
13:44 21.0 °F /  -6.1 °C 10.7 °F /  -11.8 °C 30.01in /  1016.1hPa NNW 5.0mph /  8km/h 10.0mph /  16.1km/h 64% 0.00in /  0mm
13:49 21.0 °F /  -6.1 °C 11.1 °F /  -11.6 °C 30.01in /  1016.1hPa WSW 3.0mph /  4.8km/h 8.0mph /  12.9km/h 65% 0.00in /  0mm
13:54 21.5 °F /  -5.8 °C 9.7 °F /  -12.4 °C 30.01in /  1016.1hPa NNW 5.0mph /  8km/h 9.0mph /  14.5km/h 60% 0.00in /  0mm
13:59 20.9 °F /  -6.2 °C 9.9 °F /  -12.3 °C 30.01in /  1016.1hPa NNW 2.0mph /  3.2km/h 11.0mph /  17.7km/h 62% 0.00in /  0mm
14:04 20.8 °F /  -6.2 °C 9.5 °F /  -12.5 °C 30.01in /  1016.1hPa NNW 4.0mph /  6.4km/h 11.0mph /  17.7km/h 61% 0.00in /  0mm
14:09 21.7 °F /  -5.7 °C 9.9 °F /  -12.3 °C 30.01in /  1016.1hPa NNW 3.0mph /  4.8km/h 8.0mph /  12.9km/h 60% 0.00in /  0mm
14:14 22.0 °F /  -5.6 °C 10.6 °F /  -11.9 °C 30.01in /  1016.1hPa NNW 4.0mph /  6.4km/h 9.0mph /  14.5km/h 61% 0.00in /  0mm
14:19 22.4 °F /  -5.3 °C 9.8 °F /  -12.3 °C 30.01in /  1016.1hPa NNW 4.0mph /  6.4km/h 9.0mph /  14.5km/h 58% 0.00in /  0mm
14:24 23.1 °F /  -4.9 °C 10.9 °F /  -11.7 °C 30.02in /  1016.5hPa NW 4.0mph /  6.4km/h 9.0mph /  14.5km/h 59% 0.00in /  0mm
14:29 23.4 °F /  -4.8 °C 10.8 °F /  -11.8 °C 30.02in /  1016.5hPa NW 4.0mph /  6.4km/h 10.0mph /  16.1km/h 58% 0.00in /  0mm
14:34 22.7 °F /  -5.2 °C 9.7 °F /  -12.4 °C 30.02in /  1016.5hPa WNW 5.0mph /  8km/h 10.0mph /  16.1km/h 57% 0.00in /  0mm
14:39 23.3 °F /  -4.8 °C 10.3 °F /  -12.1 °C 30.02in /  1016.5hPa NW 5.0mph /  8km/h 11.0mph /  17.7km/h 57% 0.00in /  0mm
14:44 22.1 °F /  -5.5 °C 8.0 °F /  -13.3 °C 30.02in /  1016.5hPa NW 5.0mph /  8km/h 11.0mph /  17.7km/h 54% 0.00in /  0mm
14:49 22.4 °F /  -5.3 °C 9.8 °F /  -12.3 °C 30.02in /  1016.5hPa NNW 7.0mph /  11.3km/h 11.0mph /  17.7km/h 58% 0.00in /  0mm
14:54 22.8 °F /  -5.1 °C 9.0 °F /  -12.8 °C 30.02in /  1016.5hPa WNW 4.0mph /  6.4km/h 13.0mph /  20.9km/h 55% 0.00in /  0mm
14:59 23.5 °F /  -4.7 °C 8.0 °F /  -13.3 °C 30.03in /  1016.8hPa NNW 3.0mph /  4.8km/h 10.0mph /  16.1km/h 51% 0.00in /  0mm
15:04 23.1 °F /  -4.9 °C 8.5 °F /  -13.1 °C 30.03in /  1016.8hPa WNW 7.0mph /  11.3km/h 10.0mph /  16.1km/h 53% 0.00in /  0mm
15:09 22.7 °F /  -5.2 °C 8.5 °F /  -13.1 °C 30.03in /  1016.8hPa WNW 5.0mph /  8km/h 11.0mph /  17.7km/h 54% 0.00in /  0mm
15:14 22.2 °F /  -5.4 °C 8.1 °F /  -13.3 °C 30.03in /  1016.8hPa WNW 5.0mph /  8km/h 11.0mph /  17.7km/h 54% 0.00in /  0mm
15:19 21.5 °F /  -5.8 °C 6.6 °F /  -14.1 °C 30.04in /  1017.2hPa North 4.0mph /  6.4km/h 9.0mph /  14.5km/h 52% 0.00in /  0mm
15:24 21.9 °F /  -5.6 °C 7.4 °F /  -13.7 °C 30.04in /  1017.2hPa NW 4.0mph /  6.4km/h 8.0mph /  12.9km/h 53% 0.00in /  0mm
15:29 21.8 °F /  -5.7 °C 6.4 °F /  -14.2 °C 30.04in /  1017.2hPa NW 4.0mph /  6.4km/h 8.0mph /  12.9km/h 51% 0.00in /  0mm
15:34 22.2 °F /  -5.4 °C 7.6 °F /  -13.6 °C 30.04in /  1017.2hPa WNW 4.0mph /  6.4km/h 12.0mph /  19.3km/h 53% 0.00in /  0mm
15:39 22.9 °F /  -5.1 °C 7.9 °F /  -13.4 °C 30.04in /  1017.2hPa North 3.0mph /  4.8km/h 7.0mph /  11.3km/h 52% 0.00in /  0mm
15:44 22.7 °F /  -5.2 °C 7.3 °F /  -13.7 °C 30.04in /  1017.2hPa NNW 4.0mph /  6.4km/h 8.0mph /  12.9km/h 51% 0.00in /  0mm
15:49 22.5 °F /  -5.3 °C 7.5 °F /  -13.6 °C 30.03in /  1016.8hPa NNW 4.0mph /  6.4km/h 10.0mph /  16.1km/h 52% 0.00in /  0mm
15:54 22.2 °F /  -5.4 °C 7.2 °F /  -13.8 °C 30.04in /  1017.2hPa NNW 4.0mph /  6.4km/h 10.0mph /  16.1km/h 52% 0.00in /  0mm
15:59 22.7 °F /  -5.2 °C 8.5 °F /  -13.1 °C 30.04in /  1017.2hPa NNW 4.0mph /  6.4km/h 6.0mph /  9.7km/h 54% 0.00in /  0mm
16:04 22.7 °F /  -5.2 °C 7.7 °F /  -13.5 °C 30.04in /  1017.2hPa NNW 5.0mph /  8km/h 6.0mph /  9.7km/h 52% 0.00in /  0mm
16:09 22.2 °F /  -5.4 °C 8.1 °F /  -13.3 °C 30.04in /  1017.2hPa NW 3.0mph /  4.8km/h 7.0mph /  11.3km/h 54% 0.00in /  0mm
16:14 21.7 °F /  -5.7 °C 7.6 °F /  -13.6 °C 30.04in /  1017.2hPa NW 4.0mph /  6.4km/h 8.0mph /  12.9km/h 54% 0.00in /  0mm
16:19 21.3 °F /  -5.9 °C 7.2 °F /  -13.8 °C 30.05in /  1017.5hPa NW 4.0mph /  6.4km/h 8.0mph /  12.9km/h 54% 0.00in /  0mm
16:24 21.2 °F /  -6 °C 7.9 °F /  -13.4 °C 30.05in /  1017.5hPa West 4.0mph /  6.4km/h 7.0mph /  11.3km/h 56% 0.00in /  0mm
16:29 21.1 °F /  -6.1 °C 7.4 °F /  -13.7 °C 30.05in /  1017.5hPa WSW 3.0mph /  4.8km/h 7.0mph /  11.3km/h 55% 0.00in /  0mm
16:34 21.2 °F /  -6 °C 7.9 °F /  -13.4 °C 30.05in /  1017.5hPa NW 2.0mph /  3.2km/h 6.0mph /  9.7km/h 56% 0.00in /  0mm
16:39 21.2 °F /  -6 °C 8.3 °F /  -13.2 °C 30.05in /  1017.5hPa WNW 11.0mph /  17.7km/h 11.0mph /  17.7km/h 57% 0.00in /  0mm
16:44 21.1 °F /  -6.1 °C 8.2 °F /  -13.2 °C 30.05in /  1017.5hPa WNW 5.0mph /  8km/h 11.0mph /  17.7km/h 57% 0.00in /  0mm
16:49 21.2 °F /  -6 °C 8.7 °F /  -12.9 °C 30.05in /  1017.5hPa WNW 5.0mph /  8km/h 11.0mph /  17.7km/h 58% 0.00in /  0mm
16:54 21.0 °F /  -6.1 °C 8.5 °F /  -13.1 °C 30.05in /  1017.5hPa WNW 5.0mph /  8km/h 9.0mph /  14.5km/h 58% 0.00in /  0mm
16:59 20.9 °F /  -6.2 °C 8.4 °F /  -13.1 °C 30.06in /  1017.8hPa WNW 5.0mph /  8km/h 12.0mph /  19.3km/h 58% 0.00in /  0mm
17:04 20.7 °F /  -6.3 °C 8.6 °F /  -13 °C 30.06in /  1017.8hPa WNW 6.0mph /  9.7km/h 12.0mph /  19.3km/h 59% 0.00in /  0mm
17:09 20.5 °F /  -6.4 °C 9.2 °F /  -12.7 °C 30.06in /  1017.8hPa West 7.0mph /  11.3km/h 10.0mph /  16.1km/h 61% 0.00in /  0mm
17:14 20.4 °F /  -6.4 °C 9.4 °F /  -12.6 °C 30.06in /  1017.8hPa West 7.0mph /  11.3km/h 11.0mph /  17.7km/h 62% 0.00in /  0mm
17:19 20.3 °F /  -6.5 °C 9.7 °F /  -12.4 °C 30.07in /  1018.2hPa WNW 5.0mph /  8km/h 12.0mph /  19.3km/h 63% 0.00in /  0mm
17:24 20.1 °F /  -6.6 °C 9.5 °F /  -12.5 °C 30.07in /  1018.2hPa West 5.0mph /  8km/h 9.0mph /  14.5km/h 63% 0.00in /  0mm
17:29 20.0 °F /  -6.7 °C 9.8 °F /  -12.3 °C 30.07in /  1018.2hPa West 6.0mph /  9.7km/h 11.0mph /  17.7km/h 64% 0.00in /  0mm
17:34 19.9 °F /  -6.7 °C 10.0 °F /  -12.2 °C 30.07in /  1018.2hPa WNW 4.0mph /  6.4km/h 7.0mph /  11.3km/h 65% 0.00in /  0mm
17:39 19.7 °F /  -6.8 °C 9.8 °F /  -12.3 °C 30.07in /  1018.2hPa West 2.0mph /  3.2km/h 6.0mph /  9.7km/h 65% 0.00in /  0mm
17:44 19.7 °F /  -6.8 °C 10.2 °F /  -12.1 °C 30.08in /  1018.5hPa West 5.0mph /  8km/h 7.0mph /  11.3km/h 66% 0.00in /  0mm
17:59 19.9 °F /  -6.7 °C 11.4 °F /  -11.4 °C 30.08in /  1018.5hPa West 6.0mph /  9.7km/h 13.0mph /  20.9km/h 69% 0.00in /  0mm
18:04 19.9 °F /  -6.7 °C 12.0 °F /  -11.1 °C 30.08in /  1018.5hPa West 6.0mph /  9.7km/h 13.0mph /  20.9km/h 71% 0.00in /  0mm
18:09 19.8 °F /  -6.8 °C 13.2 °F /  -10.4 °C 30.08in /  1018.5hPa WSW 6.0mph /  9.7km/h 11.0mph /  17.7km/h 75% 0.00in /  0mm
18:14 19.5 °F /  -6.9 °C 14.0 °F /  -10 °C 30.08in /  1018.5hPa WSW 6.0mph /  9.7km/h 12.0mph /  19.3km/h 79% 0.00in /  0mm
18:19 19.2 °F /  -7.1 °C 14.6 °F /  -9.7 °C 30.08in /  1018.5hPa West 5.0mph /  8km/h 12.0mph /  19.3km/h 82% 0.00in /  0mm
18:24 19.0 °F /  -7.2 °C 15.0 °F /  -9.4 °C 30.08in /  1018.5hPa West 4.0mph /  6.4km/h 8.0mph /  12.9km/h 84% 0.00in /  0mm
18:29 19.0 °F /  -7.2 °C 15.0 °F /  -9.4 °C 30.08in /  1018.5hPa NW 3.0mph /  4.8km/h 9.0mph /  14.5km/h 84% 0.00in /  0mm
18:39 19.1 °F /  -7.2 °C 15.3 °F /  -9.3 °C 30.08in /  1018.5hPa WSW 3.0mph /  4.8km/h 8.0mph /  12.9km/h 85% 0.00in /  0mm
18:44 19.1 °F /  -7.2 °C 15.3 °F /  -9.3 °C 30.09in /  1018.8hPa WSW 4.0mph /  6.4km/h 9.0mph /  14.5km/h 85% 0.00in /  0mm
18:49 19.1 °F /  -7.2 °C 14.8 °F /  -9.6 °C 30.09in /  1018.8hPa WSW 10.0mph /  16.1km/h 10.0mph /  16.1km/h 83% 0.00in /  0mm
18:59 19.3 °F /  -7.1 °C 13.9 °F /  -10.1 °C 30.09in /  1018.8hPa WSW 7.0mph /  11.3km/h 10.0mph /  16.1km/h 79% 0.00in /  0mm
19:04 19.2 °F /  -7.1 °C 13.5 °F /  -10.3 °C 30.09in /  1018.8hPa WNW 3.0mph /  4.8km/h 10.0mph /  16.1km/h 78% 0.00in /  0mm
19:09 19.1 °F /  -7.2 °C 13.1 °F /  -10.5 °C 30.09in /  1018.8hPa West 6.0mph /  9.7km/h 11.0mph /  17.7km/h 77% 0.00in /  0mm
19:14 19.0 °F /  -7.2 °C 13.0 °F /  -10.6 °C 30.09in /  1018.8hPa SW 3.0mph /  4.8km/h 12.0mph /  19.3km/h 77% 0.00in /  0mm
19:19 19.0 °F /  -7.2 °C 12.7 °F /  -10.7 °C 30.09in /  1018.8hPa West 5.0mph /  8km/h 11.0mph /  17.7km/h 76% 0.00in /  0mm
19:24 19.0 °F /  -7.2 °C 12.4 °F /  -10.9 °C 30.10in /  1019.2hPa WNW 4.0mph /  6.4km/h 15.0mph /  24.1km/h 75% 0.00in /  0mm
19:29 19.1 °F /  -7.2 °C 12.2 °F /  -11 °C 30.10in /  1019.2hPa West 6.0mph /  9.7km/h 12.0mph /  19.3km/h 74% 0.00in /  0mm
19:34 19.3 °F /  -7.1 °C 12.1 °F /  -11.1 °C 30.10in /  1019.2hPa West 6.0mph /  9.7km/h 13.0mph /  20.9km/h 73% 0.00in /  0mm
19:39 19.1 °F /  -7.2 °C 11.6 °F /  -11.3 °C 30.10in /  1019.2hPa West 6.0mph /  9.7km/h 15.0mph /  24.1km/h 72% 0.00in /  0mm
19:44 19.0 °F /  -7.2 °C 10.8 °F /  -11.8 °C 30.10in /  1019.2hPa West 7.0mph /  11.3km/h 15.0mph /  24.1km/h 70% 0.00in /  0mm
19:54 18.9 °F /  -7.3 °C 10.7 °F /  -11.8 °C 30.11in /  1019.5hPa SW 8.0mph /  12.9km/h 14.0mph /  22.5km/h 70% 0.00in /  0mm
20:04 18.8 °F /  -7.3 °C 10.6 °F /  -11.9 °C 30.11in /  1019.5hPa West 4.0mph /  6.4km/h 12.0mph /  19.3km/h 70% 0.00in /  0mm
20:14 18.7 °F /  -7.4 °C 10.9 °F /  -11.7 °C 30.12in /  1019.9hPa West 7.0mph /  11.3km/h 18.0mph /  29km/h 71% 0.00in /  0mm
20:19 18.7 °F /  -7.4 °C 10.9 °F /  -11.7 °C 30.11in /  1019.5hPa West 5.0mph /  8km/h 14.0mph /  22.5km/h 71% 0.00in /  0mm
20:24 18.6 °F /  -7.4 °C 11.4 °F /  -11.4 °C 30.12in /  1019.9hPa West 8.0mph /  12.9km/h 14.0mph /  22.5km/h 73% 0.00in /  0mm
20:29 18.6 °F /  -7.4 °C 11.7 °F /  -11.3 °C 30.12in /  1019.9hPa West 7.0mph /  11.3km/h 14.0mph /  22.5km/h 74% 0.00in /  0mm
20:34 18.5 °F /  -7.5 °C 11.9 °F /  -11.2 °C 30.13in /  1020.2hPa West 8.0mph /  12.9km/h 16.0mph /  25.7km/h 75% 0.00in /  0mm
20:39 18.4 °F /  -7.6 °C 11.8 °F /  -11.2 °C 30.13in /  1020.2hPa WNW 6.0mph /  9.7km/h 17.0mph /  27.4km/h 75% 0.00in /  0mm
20:44 18.2 °F /  -7.7 °C 11.9 °F /  -11.2 °C 30.13in /  1020.2hPa West 4.0mph /  6.4km/h 12.0mph /  19.3km/h 76% 0.00in /  0mm
20:49 18.0 °F /  -7.8 °C 12.0 °F /  -11.1 °C 30.14in /  1020.5hPa WNW 13.0mph /  20.9km/h 14.0mph /  22.5km/h 77% 0.00in /  0mm
20:54 18.0 °F /  -7.8 °C 12.0 °F /  -11.1 °C 30.14in /  1020.5hPa WSW 2.0mph /  3.2km/h 14.0mph /  22.5km/h 77% 0.00in /  0mm
20:59 18.0 °F /  -7.8 °C 12.0 °F /  -11.1 °C 30.14in /  1020.5hPa West 7.0mph /  11.3km/h 13.0mph /  20.9km/h 77% 0.00in /  0mm
21:04 17.9 °F /  -7.8 °C 11.6 °F /  -11.3 °C 30.14in /  1020.5hPa West 7.0mph /  11.3km/h 17.0mph /  27.4km/h 76% 0.00in /  0mm
21:09 17.9 °F /  -7.8 °C 11.6 °F /  -11.3 °C 30.14in /  1020.5hPa West 7.0mph /  11.3km/h 17.0mph /  27.4km/h 76% 0.00in /  0mm
21:14 18.0 °F /  -7.8 °C 11.1 °F /  -11.6 °C 30.14in /  1020.5hPa WNW 4.0mph /  6.4km/h 18.0mph /  29km/h 74% 0.00in /  0mm
21:19 17.9 °F /  -7.8 °C 11.0 °F /  -11.7 °C 30.15in /  1020.9hPa West 8.0mph /  12.9km/h 18.0mph /  29km/h 74% 0.00in /  0mm
21:24 17.9 °F /  -7.8 °C 11.0 °F /  -11.7 °C 30.15in /  1020.9hPa West 7.0mph /  11.3km/h 13.0mph /  20.9km/h 74% 0.00in /  0mm
21:29 17.9 °F /  -7.8 °C 11.0 °F /  -11.7 °C 30.15in /  1020.9hPa WNW 9.0mph /  14.5km/h 14.0mph /  22.5km/h 74% 0.00in /  0mm
21:34 17.9 °F /  -7.8 °C 11.3 °F /  -11.5 °C 30.15in /  1020.9hPa West 7.0mph /  11.3km/h 16.0mph /  25.7km/h 75% 0.00in /  0mm
21:39 17.8 °F /  -7.9 °C 11.2 °F /  -11.6 °C 30.14in /  1020.5hPa West 6.0mph /  9.7km/h 13.0mph /  20.9km/h 75% 0.00in /  0mm
21:44 17.7 °F /  -7.9 °C 11.1 °F /  -11.6 °C 30.14in /  1020.5hPa WSW 6.0mph /  9.7km/h 21.0mph /  33.8km/h 75% 0.00in /  0mm
21:49 17.6 °F /  -8 °C 11.0 °F /  -11.7 °C 30.14in /  1020.5hPa WSW 11.0mph /  17.7km/h 14.0mph /  22.5km/h 75% 0.00in /  0mm
21:54 17.5 °F /  -8.1 °C 10.9 °F /  -11.7 °C 30.14in /  1020.5hPa WSW 8.0mph /  12.9km/h 13.0mph /  20.9km/h 75% 0.00in /  0mm
21:59 17.5 °F /  -8.1 °C 10.9 °F /  -11.7 °C 30.15in /  1020.9hPa West 8.0mph /  12.9km/h 14.0mph /  22.5km/h 75% 0.00in /  0mm
22:04 17.6 °F /  -8 °C 11.0 °F /  -11.7 °C 30.15in /  1020.9hPa WNW 5.0mph /  8km/h 17.0mph /  27.4km/h 75% 0.00in /  0mm
22:09 17.7 °F /  -7.9 °C 11.4 °F /  -11.4 °C 30.15in /  1020.9hPa West 8.0mph /  12.9km/h 17.0mph /  27.4km/h 76% 0.00in /  0mm
22:14 17.9 °F /  -7.8 °C 11.3 °F /  -11.5 °C 30.15in /  1020.9hPa West 8.0mph /  12.9km/h 16.0mph /  25.7km/h 75% 0.00in /  0mm
22:19 17.9 °F /  -7.8 °C 11.3 °F /  -11.5 °C 30.15in /  1020.9hPa West 8.0mph /  12.9km/h 21.0mph /  33.8km/h 75% 0.00in /  0mm
22:24 17.7 °F /  -7.9 °C 10.8 °F /  -11.8 °C 30.15in /  1020.9hPa WSW 9.0mph /  14.5km/h 15.0mph /  24.1km/h 74% 0.00in /  0mm
22:29 17.7 °F /  -7.9 °C 10.8 °F /  -11.8 °C 30.15in /  1020.9hPa WSW 6.0mph /  9.7km/h 22.0mph /  35.4km/h 74% 0.00in /  0mm
22:34 17.8 °F /  -7.9 °C 10.9 °F /  -11.7 °C 30.15in /  1020.9hPa West 6.0mph /  9.7km/h 17.0mph /  27.4km/h 74% 0.00in /  0mm
22:39 17.7 °F /  -7.9 °C 10.8 °F /  -11.8 °C 30.15in /  1020.9hPa West 9.0mph /  14.5km/h 17.0mph /  27.4km/h 74% 0.00in /  0mm
22:44 17.8 °F /  -7.9 °C 10.6 °F /  -11.9 °C 30.15in /  1020.9hPa West 8.0mph /  12.9km/h 17.0mph /  27.4km/h 73% 0.00in /  0mm
22:49 17.7 °F /  -7.9 °C 10.5 °F /  -11.9 °C 30.15in /  1020.9hPa West 9.0mph /  14.5km/h 19.0mph /  30.6km/h 73% 0.00in /  0mm
22:54 17.7 °F /  -7.9 °C 10.5 °F /  -11.9 °C 30.16in /  1021.2hPa WSW 4.0mph /  6.4km/h 14.0mph /  22.5km/h 73% 0.00in /  0mm
22:59 17.8 °F /  -7.9 °C 10.6 °F /  -11.9 °C 30.16in /  1021.2hPa WNW 11.0mph /  17.7km/h 19.0mph /  30.6km/h 73% 0.00in /  0mm
23:04 17.7 °F /  -7.9 °C 10.5 °F /  -11.9 °C 30.16in /  1021.2hPa West 9.0mph /  14.5km/h 14.0mph /  22.5km/h 73% 0.00in /  0mm
23:09 17.9 °F /  -7.8 °C 10.7 °F /  -11.8 °C 30.16in /  1021.2hPa West 7.0mph /  11.3km/h 14.0mph /  22.5km/h 73% 0.00in /  0mm
23:14 17.8 °F /  -7.9 °C 10.9 °F /  -11.7 °C 30.16in /  1021.2hPa West 6.0mph /  9.7km/h 13.0mph /  20.9km/h 74% 0.00in /  0mm
23:19 17.9 °F /  -7.8 °C 11.0 °F /  -11.7 °C 30.16in /  1021.2hPa WSW 5.0mph /  8km/h 16.0mph /  25.7km/h 74% 0.00in /  0mm
23:24 18.0 °F /  -7.8 °C 10.8 °F /  -11.8 °C 30.16in /  1021.2hPa West 8.0mph /  12.9km/h 16.0mph /  25.7km/h 73% 0.00in /  0mm
23:29 18.0 °F /  -7.8 °C 10.8 °F /  -11.8 °C 30.17in /  1021.6hPa West 9.0mph /  14.5km/h 16.0mph /  25.7km/h 73% 0.00in /  0mm
23:34 18.0 °F /  -7.8 °C 11.1 °F /  -11.6 °C 30.17in /  1021.6hPa West 10.0mph /  16.1km/h 18.0mph /  29km/h 74% 0.00in /  0mm
23:39 18.0 °F /  -7.8 °C 11.1 °F /  -11.6 °C 30.17in /  1021.6hPa NW 5.0mph /  8km/h 15.0mph /  24.1km/h 74% 0.00in /  0mm
23:44 18.0 °F /  -7.8 °C 11.1 °F /  -11.6 °C 30.17in /  1021.6hPa West 8.0mph /  12.9km/h 15.0mph /  24.1km/h 74% 0.00in /  0mm
23:49 18.0 °F /  -7.8 °C 10.8 °F /  -11.8 °C 30.17in /  1021.6hPa West 7.0mph /  11.3km/h 15.0mph /  24.1km/h 73% 0.00in /  0mm
23:54 18.1 °F /  -7.7 °C 10.9 °F /  -11.7 °C 30.17in /  1021.6hPa West 8.0mph /  12.9km/h 15.0mph /  24.1km/h 73% 0.00in /  0mm
23:59 18.1 °F /  -7.7 °C 10.6 °F /  -11.9 °C 30.17in /  1021.6hPa WSW 10.0mph /  16.1km/h 25.0mph /  40.2km/h 72% 0.00in /  0mm
Buffalo, New York, USA
Compliments of Weather Underground - 2.5 mb